Time;durP1;ratioP1;P1;durP2;ratioP2;P2;SDS_P1;SDS_P2;PMS_P1;PMS_P2;Temp;Humidity;BMP_temperature;BMP_pressure;BME280_temperature;BME280_humidity;BME280_pressure;Samples;Min_cycle;Max_cycle;Signal;HPM_P1;HPM_P2
2022/04/22 00:01:25;;;;;;;3.55;3.20;;;13.00;98.20;;;;;;5094522;28;20178;-59
2022/04/22 00:03:51;;;;;;;3.53;2.53;;;12.90;98.30;;;;;;5094276;28;20192;-59
2022/04/22 00:06:17;;;;;;;2.45;2.10;;;12.90;98.50;;;;;;5094273;28;20746;-60
2022/04/22 00:08:42;;;;;;;2.90;2.40;;;12.90;98.40;;;;;;5076094;28;20652;-59
2022/04/22 00:13:54;;;;;;;2.63;2.30;;;12.80;98.70;;;;;;5094666;28;20282;-59
2022/04/22 00:16:19;;;;;;;2.63;2.17;;;12.80;99.00;;;;;;5059881;28;20277;-59
2022/04/22 00:18:45;;;;;;;2.80;2.22;;;12.70;99.10;;;;;;5059621;28;20272;-59
2022/04/22 00:21:11;;;;;;;3.15;2.35;;;12.70;99.00;;;;;;5093902;28;20177;-59
2022/04/22 00:23:36;;;;;;;2.75;2.30;;;12.60;99.00;;;;;;5076284;28;20700;-59
2022/04/22 00:26:02;;;;;;;2.25;1.90;;;12.60;99.00;;;;;;5094004;28;20290;-59
2022/04/22 00:28:28;;;;;;;2.97;2.10;;;12.60;99.10;;;;;;5093808;28;20166;-59
2022/04/22 00:30:54;;;;;;;2.88;2.20;;;12.60;99.30;;;;;;5094021;28;20177;-59
2022/04/22 00:33:20;;;;;;;1.95;1.85;;;12.50;99.20;;;;;;5094136;28;20696;-60
2022/04/22 00:35:46;;;;;;;2.80;2.00;;;12.50;99.40;;;;;;5093861;28;20688;-60
2022/04/22 00:38:12;;;;;;;2.15;1.92;;;12.50;99.50;;;;;;5093061;28;20170;-59
2022/04/22 00:40:38;;;;;;;2.75;1.83;;;12.50;99.50;;;;;;5075697;28;20184;-59
2022/04/22 00:43:41;;;;;;;2.15;1.95;;;12.40;99.60;;;;;;5093877;28;20235;-59
2022/04/22 00:46:07;;;;;;;2.47;2.08;;;12.40;99.70;;;;;;5077800;28;20214;-59
2022/04/22 00:48:33;;;;;;;2.53;2.33;;;12.40;99.60;;;;;;5093576;28;20182;-60
2022/04/22 00:50:59;;;;;;;2.40;1.77;;;12.30;99.90;;;;;;5093747;28;20200;-59
2022/04/22 00:53:25;;;;;;;2.80;2.10;;;12.30;99.90;;;;;;5093949;28;20264;-59
2022/04/22 00:55:51;;;;;;;2.13;1.80;;;12.20;99.90;;;;;;5075506;28;20601;-59
2022/04/22 00:58:17;;;;;;;2.88;2.00;;;12.20;99.90;;;;;;5075363;28;20656;-59
2022/04/22 01:00:43;;;;;;;3.00;1.90;;;12.20;99.90;;;;;;5093334;28;20169;-59
2022/04/22 01:03:09;;;;;;;2.15;2.03;;;12.20;99.90;;;;;;5093083;28;20177;-59
2022/04/22 01:11:05;;;;;;;2.97;2.30;;;12.00;99.90;;;;;;5093286;28;20548;-59
2022/04/22 01:13:31;;;;;;;3.25;2.80;;;12.00;99.90;;;;;;5093733;28;20166;-59
2022/04/22 01:15:57;;;;;;;3.38;2.35;;;11.90;99.90;;;;;;5075331;28;20178;-59
2022/04/22 01:18:22;;;;;;;4.40;2.72;;;11.90;99.90;;;;;;5075429;28;20166;-59
2022/04/22 01:20:48;;;;;;;2.72;2.50;;;11.80;99.90;;;;;;5093311;28;20169;-59
2022/04/22 01:23:14;;;;;;;3.50;3.17;;;11.80;99.90;;;;;;5093213;28;20178;-59
2022/04/22 01:25:40;;;;;;;3.20;2.80;;;11.80;99.90;;;;;;5093031;28;20209;-59
2022/04/22 01:28:06;;;;;;;3.30;2.80;;;11.70;99.90;;;;;;5058508;28;20202;-59
2022/04/22 01:30:32;;;;;;;3.38;2.60;;;11.80;99.90;;;;;;5093431;28;20250;-60
2022/04/22 01:32:58;;;;;;;3.45;2.47;;;11.70;99.90;;;;;;5075243;28;20220;-59
2022/04/22 01:35:25;;;;;;;3.42;2.72;;;11.70;99.90;;;;;;5093142;28;20166;-59
2022/04/22 01:37:51;;;;;;;4.03;2.55;;;11.60;99.90;;;;;;5093232;28;20261;-59
2022/04/22 01:40:18;;;;;;;2.88;2.55;;;11.70;99.90;;;;;;5093029;28;20169;-59
2022/04/22 01:42:44;;;;;;;3.08;2.40;;;11.50;99.90;;;;;;5093256;28;20166;-59
2022/04/22 01:45:12;;;;;;;4.32;2.78;;;11.50;99.90;;;;;;5075249;28;20212;-59
2022/04/22 01:47:37;;;;;;;3.95;2.85;;;11.50;99.90;;;;;;5074943;28;20205;-59
2022/04/22 01:50:04;;;;;;;3.47;3.08;;;11.50;99.90;;;;;;5095512;28;20632;-59
2022/04/22 01:52:29;;;;;;;3.45;2.92;;;11.40;99.90;;;;;;5097021;28;20167;-59
2022/04/22 01:54:56;;;;;;;3.90;2.88;;;11.30;99.90;;;;;;5096895;28;20174;-59
2022/04/22 01:57:22;;;;;;;2.95;2.38;;;11.30;99.90;;;;;;5062024;28;20189;-59
2022/04/22 01:59:48;;;;;;;4.18;3.00;;;11.30;99.90;;;;;;5096959;28;20205;-59
2022/04/22 02:02:15;;;;;;;3.33;2.90;;;11.30;99.90;;;;;;5096800;28;20170;-59
2022/04/22 02:04:41;;;;;;;3.35;2.97;;;11.20;99.90;;;;;;5096669;28;20284;-59
2022/04/22 02:07:07;;;;;;;3.60;2.95;;;11.20;99.90;;;;;;5078514;28;20686;-59
2022/04/22 02:09:33;;;;;;;4.15;3.20;;;11.20;99.90;;;;;;5096616;28;20252;-59
2022/04/22 02:11:58;;;;;;;4.47;3.63;;;11.20;99.90;;;;;;5096984;28;20249;-59
2022/04/22 02:14:25;;;;;;;3.97;3.28;;;11.20;99.90;;;;;;5096673;28;20174;-59
2022/04/22 02:16:52;;;;;;;3.88;3.47;;;11.20;99.90;;;;;;5096374;28;20537;-59
2022/04/22 02:19:18;;;;;;;3.88;3.10;;;11.20;99.90;;;;;;5078341;28;20185;-60
2022/04/22 02:21:44;;;;;;;4.28;3.40;;;11.20;99.90;;;;;;5096331;28;20173;-59
2022/04/22 02:24:10;;;;;;;3.55;3.22;;;11.10;99.90;;;;;;5096249;28;20181;-59
2022/04/22 02:29:20;;;;;;;4.25;3.85;;;11.00;99.90;;;;;;5096635;28;20540;-59
2022/04/22 02:31:46;;;;;;;4.13;3.72;;;11.00;99.90;;;;;;5096358;28;20166;-59
2022/04/22 02:34:12;;;;;;;3.72;3.38;;;11.00;99.90;;;;;;5096780;28;20544;-59
2022/04/22 02:36:39;;;;;;;3.90;3.60;;;11.00;99.90;;;;;;5077955;28;20178;-59
2022/04/22 02:39:05;;;;;;;4.03;3.22;;;10.90;99.90;;;;;;5096326;28;20201;-59
2022/04/22 02:46:59;;;;;;;4.90;4.00;;;10.90;99.90;;;;;;5095889;28;20271;-59
2022/04/22 02:49:25;;;;;;;4.65;3.88;;;10.90;99.90;;;;;;5095963;28;20178;-59
2022/04/22 02:51:51;;;;;;;5.05;3.83;;;10.90;99.90;;;;;;5095973;28;20582;-59
2022/04/22 02:54:17;;;;;;;5.47;4.20;;;10.80;99.90;;;;;;5095880;28;20216;-59
2022/04/22 02:56:42;;;;;;;5.95;4.13;;;10.70;99.90;;;;;;5095766;28;20178;-59
2022/04/22 02:59:09;;;;;;;4.95;4.13;;;10.70;99.90;;;;;;5077468;28;20213;-58
2022/04/22 03:01:34;;;;;;;5.53;3.97;;;10.60;99.90;;;;;;5094504;28;20166;-59
2022/04/22 03:04:00;;;;;;;5.25;4.45;;;10.60;99.90;;;;;;5095385;28;20284;-59
2022/04/22 03:06:26;;;;;;;4.80;4.30;;;10.60;99.90;;;;;;5095584;28;20209;-59
2022/04/22 03:08:52;;;;;;;5.70;4.65;;;10.70;99.90;;;;;;5077418;28;20173;-59
2022/04/22 03:11:21;;;;;;;4.70;3.95;;;10.70;99.90;;;;;;5095432;28;20187;-59
2022/04/22 03:13:49;;;;;;;5.55;4.05;;;10.60;99.90;;;;;;5095371;28;20174;-59
2022/04/22 03:16:17;;;;;;;5.63;4.70;;;10.60;99.90;;;;;;5095207;28;20179;-59
2022/04/22 03:18:43;;;;;;;5.63;4.32;;;10.60;99.90;;;;;;5095490;28;20196;-59
2022/04/22 03:21:08;;;;;;;5.40;4.68;;;10.60;99.90;;;;;;5077389;28;20677;-59
2022/04/22 03:23:34;;;;;;;6.40;4.65;;;10.50;99.90;;;;;;5095303;28;20170;-59
2022/04/22 03:26:00;;;;;;;5.45;4.82;;;10.50;99.90;;;;;;5077174;28;20289;-59
2022/04/22 03:28:26;;;;;;;5.75;4.97;;;10.50;99.90;;;;;;5095124;28;20628;-59
2022/04/22 03:30:51;;;;;;;6.70;4.53;;;10.40;99.90;;;;;;5094943;28;20528;-59
2022/04/22 03:33:18;;;;;;;5.38;4.70;;;10.40;99.90;;;;;;5095076;28;20178;-59
2022/04/22 03:35:45;;;;;;;6.18;4.97;;;10.40;99.90;;;;;;5077056;28;20190;-59
2022/04/22 03:38:11;;;;;;;6.03;5.20;;;10.50;99.90;;;;;;5076933;28;20642;-59
2022/04/22 03:40:37;;;;;;;5.57;4.68;;;10.40;99.90;;;;;;5095037;28;20188;-59
2022/04/22 03:43:03;;;;;;;6.45;4.90;;;10.40;99.90;;;;;;5076921;28;20177;-59
2022/04/22 03:45:29;;;;;;;6.72;4.97;;;10.30;99.90;;;;;;5094550;28;20170;-59
2022/04/22 03:47:59;;;;;;;6.50;5.03;;;10.30;99.90;;;;;;5094894;28;20192;-59
2022/04/22 03:50:28;;;;;;;6.28;5.15;;;10.40;99.90;;;;;;5094808;28;20521;-59
2022/04/22 03:52:54;;;;;;;5.75;4.85;;;10.30;99.90;;;;;;5059815;28;20185;-59
2022/04/22 03:55:20;;;;;;;6.63;5.43;;;10.30;99.90;;;;;;5076420;28;20182;-59
2022/04/22 04:00:32;;;;;;;6.15;5.55;;;10.30;99.90;;;;;;5094755;28;20189;-59
2022/04/22 04:02:58;;;;;;;7.53;5.70;;;10.30;99.90;;;;;;5094471;28;20166;-59
2022/04/22 04:05:24;;;;;;;6.70;5.47;;;10.30;99.90;;;;;;5076086;28;20545;-59
2022/04/22 04:07:49;;;;;;;6.63;5.47;;;10.30;99.90;;;;;;5094387;28;20177;-59
2022/04/22 04:15:58;;;;;;;5.45;4.95;;;10.20;99.90;;;;;;5094239;28;20232;-59
2022/04/22 04:18:25;;;;;;;7.05;5.30;;;10.20;99.90;;;;;;5094266;28;20694;-59
2022/04/22 04:23:34;;;;;;;6.97;5.32;;;10.10;99.90;;;;;;5094293;28;20544;-59
2022/04/22 04:26:00;;;;;;;5.82;5.22;;;10.10;99.90;;;;;;5094060;28;20202;-59
2022/04/22 04:28:29;;;;;;;7.40;5.75;;;10.10;99.90;;;;;;5075829;28;20173;-59
2022/04/22 04:30:55;;;;;;;6.28;4.90;;;10.00;99.90;;;;;;5093948;28;20174;-59
2022/04/22 04:33:21;;;;;;;6.65;5.28;;;10.00;99.90;;;;;;5093711;28;20657;-59
2022/04/22 04:35:47;;;;;;;7.57;5.45;;;10.00;99.90;;;;;;5093920;28;20193;-59
2022/04/22 04:38:14;;;;;;;5.95;5.25;;;9.90;99.90;;;;;;5093892;28;20370;-59
2022/04/22 04:40:40;;;;;;;6.05;5.25;;;10.00;99.90;;;;;;5094302;28;20265;-59
2022/04/22 04:43:06;;;;;;;6.10;5.03;;;10.00;99.90;;;;;;5094001;28;20356;-59
2022/04/22 04:45:33;;;;;;;5.75;4.85;;;10.10;99.90;;;;;;5093552;28;20342;-59
2022/04/22 04:47:59;;;;;;;6.00;4.95;;;10.00;99.90;;;;;;5093454;28;20166;-59
2022/04/22 04:50:24;;;;;;;5.85;5.05;;;10.00;99.90;;;;;;5093784;28;20647;-59
2022/04/22 04:52:50;;;;;;;6.68;5.47;;;10.00;99.90;;;;;;5075469;28;20174;-59
2022/04/22 04:55:16;;;;;;;7.15;5.60;;;10.00;99.90;;;;;;5093566;28;20174;-59
2022/04/22 04:57:45;;;;;;;5.45;4.88;;;10.00;99.90;;;;;;5093466;28;20235;-59
2022/04/22 05:00:11;;;;;;;6.05;5.38;;;10.00;99.90;;;;;;5093499;28;20276;-59
2022/04/22 05:02:38;;;;;;;6.53;5.55;;;10.00;99.90;;;;;;5093332;28;20178;-59
2022/04/22 05:05:05;;;;;;;7.22;5.20;;;10.00;99.90;;;;;;5092964;28;20280;-59
2022/04/22 05:07:45;;;;;;;7.40;6.07;;;10.00;99.90;;;;;;5075289;28;20206;-59
2022/04/22 05:10:10;;;;;;;6.85;5.55;;;10.10;99.90;;;;;;5092904;28;20177;-60
2022/04/22 05:12:36;;;;;;;6.78;5.82;;;10.00;99.90;;;;;;5093314;28;20178;-60
2022/04/22 05:15:02;;;;;;;7.93;5.70;;;10.10;99.90;;;;;;5075229;28;20174;-59
2022/04/22 05:17:27;;;;;;;6.72;5.80;;;10.00;99.90;;;;;;5093498;28;20185;-60
2022/04/22 05:19:53;;;;;;;7.30;5.57;;;10.10;99.90;;;;;;5093367;28;20170;-60
2022/04/22 05:22:18;;;;;;;5.85;5.25;;;10.20;99.90;;;;;;5093272;28;20188;-60
2022/04/22 05:24:44;;;;;;;7.18;5.93;;;10.20;99.90;;;;;;5096792;28;20178;-59
2022/04/22 05:27:10;;;;;;;7.70;5.57;;;10.20;99.90;;;;;;5099865;28;20267;-60
2022/04/22 05:32:37;;;;;;;8.25;6.18;;;10.20;99.90;;;;;;5100004;28;20192;-59
2022/04/22 05:35:08;;;;;;;6.38;5.35;;;10.20;99.90;;;;;;5100131;28;20169;-60
2022/04/22 05:37:47;;;;;;;6.78;5.55;;;10.30;99.90;;;;;;5099932;28;20173;-59
2022/04/22 05:40:15;;;;;;;6.75;5.35;;;10.40;99.90;;;;;;5100140;28;20528;-61
2022/04/22 05:42:41;;;;;;;7.43;5.43;;;10.40;99.90;;;;;;5099765;28;20178;-59
2022/04/22 05:45:08;;;;;;;6.88;5.57;;;10.50;99.90;;;;;;5081672;28;20544;-61
2022/04/22 05:47:34;;;;;;;7.38;5.38;;;10.50;99.90;;;;;;5099586;28;20218;-61
2022/04/22 05:50:00;;;;;;;8.98;5.70;;;10.80;99.90;;;;;;5099717;28;20169;-59
2022/04/22 05:52:26;;;;;;;8.15;5.70;;;11.00;99.90;;;;;;5099592;28;20180;-59
2022/04/22 05:54:53;;;;;;;7.18;5.82;;;11.00;99.90;;;;;;5099631;28;20621;-58
2022/04/22 05:57:19;;;;;;;7.13;5.85;;;11.20;99.90;;;;;;5100050;28;20264;-59
2022/04/22 05:59:45;;;;;;;7.93;5.55;;;11.30;99.90;;;;;;5081826;28;20260;-59
2022/04/22 06:02:11;;;;;;;6.55;5.40;;;11.20;99.90;;;;;;5099696;28;20182;-58
2022/04/22 06:04:36;;;;;;;8.20;6.50;;;11.30;99.90;;;;;;5099506;28;20178;-59
2022/04/22 06:07:02;;;;;;;7.22;5.85;;;11.50;99.90;;;;;;5099329;28;20208;-59
2022/04/22 06:12:13;;;;;;;8.30;5.85;;;11.40;99.90;;;;;;5099978;28;20631;-59
2022/04/22 06:14:39;;;;;;;7.00;5.68;;;11.50;99.90;;;;;;5099567;28;20181;-61
2022/04/22 06:17:05;;;;;;;9.45;6.30;;;11.50;99.90;;;;;;5099361;28;20181;-58
2022/04/22 06:19:31;;;;;;;7.05;5.38;;;11.60;99.90;;;;;;5081109;28;20188;-61
2022/04/22 06:21:56;;;;;;;8.18;6.15;;;11.70;99.90;;;;;;5099457;28;20261;-58
2022/04/22 06:24:22;;;;;;;8.57;5.78;;;11.70;99.90;;;;;;5099505;28;20177;-59
2022/04/22 06:26:48;;;;;;;7.75;5.63;;;11.70;99.90;;;;;;5099438;28;20201;-58
2022/04/22 06:29:14;;;;;;;7.13;5.53;;;11.70;99.90;;;;;;5099403;28;20621;-59
2022/04/22 06:31:40;;;;;;;7.18;5.68;;;11.90;99.90;;;;;;5099251;28;20185;-59
2022/04/22 06:34:06;;;;;;;8.88;6.00;;;11.90;99.90;;;;;;5099238;28;20545;-58
2022/04/22 06:36:32;;;;;;;7.60;5.78;;;11.80;99.90;;;;;;5078719;28;20268;-61
2022/04/22 06:38:58;;;;;;;7.95;5.95;;;11.70;99.90;;;;;;5095898;28;20166;-59
2022/04/22 06:46:57;;;;;;;8.45;6.03;;;12.00;99.90;;;;;;5096114;28;20268;-61
2022/04/22 06:49:23;;;;;;;7.43;5.30;;;12.00;99.90;;;;;;5096097;28;20178;-60
2022/04/22 06:51:50;;;;;;;7.47;5.93;;;12.10;99.90;;;;;;5095991;28;20180;-60
2022/04/22 06:54:16;;;;;;;8.20;6.25;;;12.20;99.90;;;;;;5095785;28;20170;-60
2022/04/22 06:56:44;;;;;;;7.05;5.88;;;12.10;99.90;;;;;;5095698;28;20273;-60
2022/04/22 06:59:10;;;;;;;7.55;5.32;;;12.30;99.90;;;;;;5077438;28;20698;-60
2022/04/22 07:01:36;;;;;;;7.05;5.40;;;12.30;99.90;;;;;;5077535;28;20228;-60
2022/04/22 07:04:03;;;;;;;7.72;5.60;;;12.40;99.90;;;;;;5095678;28;20216;-60
2022/04/22 07:06:29;;;;;;;7.63;5.97;;;12.60;99.90;;;;;;5095489;28;20727;-60
2022/04/22 07:08:56;;;;;;;7.85;5.85;;;12.60;99.90;;;;;;5095503;28;20177;-60
2022/04/22 07:11:27;;;;;;;6.70;5.38;;;12.70;99.90;;;;;;5095278;28;20548;-60
2022/04/22 07:14:00;;;;;;;8.23;5.63;;;12.80;99.90;;;;;;5095331;28;20189;-60
2022/04/22 07:16:27;;;;;;;7.32;5.85;;;12.90;99.90;;;;;;5095430;28;20201;-60
2022/04/22 07:18:53;;;;;;;7.32;5.32;;;13.00;99.90;;;;;;5095425;28;20174;-60
2022/04/22 07:21:19;;;;;;;7.38;5.72;;;13.10;99.90;;;;;;5095382;28;20200;-60
2022/04/22 07:23:45;;;;;;;9.10;5.57;;;13.00;99.90;;;;;;5095235;28;20177;-60
2022/04/22 07:26:11;;;;;;;6.57;5.38;;;13.20;99.90;;;;;;5095079;28;20239;-60
2022/04/22 07:28:38;;;;;;;7.20;5.45;;;13.30;99.90;;;;;;5095336;28;20170;-60
2022/04/22 07:31:04;;;;;;;6.80;5.18;;;13.30;99.90;;;;;;5095358;28;20178;-60
2022/04/22 07:33:31;;;;;;;6.88;5.32;;;13.20;99.90;;;;;;5095016;28;20200;-60
2022/04/22 07:35:57;;;;;;;8.90;5.88;;;13.30;99.90;;;;;;5094988;28;20186;-60
2022/04/22 07:38:24;;;;;;;7.07;5.10;;;13.10;99.90;;;;;;5094992;28;20170;-60
2022/04/22 07:40:51;;;;;;;6.43;5.10;;;13.00;99.90;;;;;;5094758;28;20178;-60
2022/04/22 07:48:53;;;;;;;7.32;6.03;;;12.80;99.90;;;;;;5094402;28;20234;-60
2022/04/22 07:51:22;;;;;;;6.43;5.40;;;12.70;99.90;;;;;;5094589;28;20579;-60
2022/04/22 07:53:49;;;;;;;8.90;6.00;;;12.80;99.90;;;;;;5094864;28;20185;-60
2022/04/22 07:56:14;;;;;;;7.57;5.65;;;12.90;99.90;;;;;;5094609;28;20636;-59
2022/04/22 07:58:40;;;;;;;8.23;5.88;;;13.10;99.90;;;;;;5076665;28;20273;-60
2022/04/22 08:01:06;;;;;;;6.70;5.38;;;12.90;99.90;;;;;;5094458;28;20178;-60
2022/04/22 08:03:32;;;;;;;7.55;5.60;;;12.90;99.90;;;;;;5076300;28;20193;-60
2022/04/22 08:05:58;;;;;;;7.85;5.80;;;13.00;99.90;;;;;;5094244;28;20649;-60
2022/04/22 08:08:28;;;;;;;9.02;6.05;;;13.20;99.90;;;;;;5094445;28;20223;-60
2022/04/22 08:10:55;;;;;;;7.32;5.75;;;13.50;99.90;;;;;;5076395;28;20177;-60
2022/04/22 08:13:21;;;;;;;7.95;5.63;;;13.90;99.90;;;;;;5094362;28;20182;-60
2022/04/22 08:15:46;;;;;;;9.02;6.38;;;14.00;99.90;;;;;;5094240;28;20181;-60
2022/04/22 08:18:12;;;;;;;8.93;5.85;;;14.00;99.90;;;;;;5094020;28;20170;-60
2022/04/22 08:20:38;;;;;;;8.90;5.88;;;14.10;99.90;;;;;;5094389;28;20746;-60
2022/04/22 08:23:04;;;;;;;8.20;6.13;;;14.20;99.90;;;;;;5094214;28;20536;-60
2022/04/22 08:25:30;;;;;;;7.28;5.53;;;14.20;99.90;;;;;;5094196;28;20530;-60
2022/04/22 08:27:55;;;;;;;8.13;5.90;;;14.30;99.90;;;;;;5094037;28;20181;-60
2022/04/22 08:30:21;;;;;;;8.18;5.72;;;14.60;99.90;;;;;;5075810;28;20277;-60
2022/04/22 08:32:47;;;;;;;10.27;6.70;;;15.00;99.90;;;;;;5093762;28;20357;-60
2022/04/22 08:35:13;;;;;;;7.53;5.95;;;15.20;99.90;;;;;;5075835;28;20186;-61
2022/04/22 08:37:42;;;;;;;8.98;6.05;;;15.10;99.90;;;;;;5094007;28;20181;-61
2022/04/22 08:40:12;;;;;;;9.50;5.80;;;15.00;99.90;;;;;;5094052;28;20223;-60
2022/04/22 08:42:39;;;;;;;9.35;6.55;;;14.70;99.90;;;;;;5093811;28;20162;-60
2022/04/22 08:45:11;;;;;;;10.63;6.88;;;14.80;99.90;;;;;;5093586;28;20590;-61
2022/04/22 08:50:22;;;;;;;11.82;7.03;;;14.50;99.90;;;;;;5093951;28;20184;-60
2022/04/22 08:53:05;;;;;;;8.90;6.55;;;14.40;99.90;;;;;;5093690;28;20189;-60
2022/04/22 08:55:33;;;;;;;10.38;7.68;;;14.60;99.90;;;;;;5093697;28;20208;-60
2022/04/22 08:58:01;;;;;;;9.45;7.43;;;14.60;99.90;;;;;;5093496;28;20172;-60
2022/04/22 09:00:27;;;;;;;8.77;7.07;;;14.50;99.90;;;;;;5092955;28;20174;-61
2022/04/22 09:02:57;;;;;;;10.43;7.20;;;14.70;99.90;;;;;;5093380;28;20550;-60
2022/04/22 09:05:25;;;;;;;11.13;7.22;;;15.10;99.90;;;;;;5093527;28;20192;-60
2022/04/22 09:07:52;;;;;;;9.38;7.28;;;15.50;99.90;;;;;;5093496;28;20166;-60
2022/04/22 09:10:18;;;;;;;11.07;7.20;;;15.80;99.90;;;;;;5075293;28;20211;-60
2022/04/22 09:12:54;;;;;;;10.35;7.70;;;16.00;99.90;;;;;;5093599;28;20245;-60
2022/04/22 09:15:31;;;;;;;9.25;6.85;;;16.00;99.90;;;;;;5093579;28;20177;-61
2022/04/22 09:18:08;;;;;;;9.32;6.78;;;15.70;99.90;;;;;;5093363;28;20169;-61
2022/04/22 09:20:35;;;;;;;9.30;6.68;;;15.60;99.90;;;;;;5093070;28;20180;-60
2022/04/22 09:23:19;;;;;;;7.60;6.50;;;15.60;99.90;;;;;;5093085;28;20170;-60
2022/04/22 09:25:45;;;;;;;11.20;6.38;;;15.70;99.90;;;;;;5093270;28;20201;-61
2022/04/22 09:28:11;;;;;;;7.35;5.60;;;15.90;99.90;;;;;;5093161;28;20685;-61
2022/04/22 09:30:37;;;;;;;8.05;6.60;;;16.00;99.90;;;;;;5075086;28;20170;-61
2022/04/22 09:33:03;;;;;;;6.88;5.38;;;15.50;99.90;;;;;;5074874;28;20178;-61
2022/04/22 09:35:29;;;;;;;7.20;4.72;;;15.20;99.90;;;;;;5092878;28;20174;-61
2022/04/22 09:43:37;;;;;;;7.68;5.65;;;15.50;99.90;;;;;;5093451;28;20283;-60
2022/04/22 09:46:03;;;;;;;7.03;5.00;;;15.90;99.90;;;;;;5092818;28;20649;-60
2022/04/22 09:48:44;;;;;;;7.18;5.28;;;15.50;99.90;;;;;;5093197;28;20261;-60
2022/04/22 09:51:31;;;;;;;5.75;4.15;;;15.50;99.90;;;;;;5092914;28;20185;-61
2022/04/22 09:54:09;;;;;;;6.28;4.50;;;15.40;99.70;;;;;;5092889;28;20173;-60
2022/04/22 09:56:37;;;;;;;6.75;4.82;;;15.30;99.90;;;;;;5093050;28;20732;-60
2022/04/22 09:59:22;;;;;;;6.10;4.15;;;15.40;99.90;;;;;;5092959;28;20240;-60
2022/04/22 10:01:49;;;;;;;8.57;4.47;;;15.30;99.90;;;;;;5092824;28;20629;-61
2022/04/22 10:04:19;;;;;;;5.55;4.32;;;15.30;99.90;;;;;;5092997;28;20636;-59
2022/04/22 10:06:45;;;;;;;5.50;4.47;;;14.90;99.90;;;;;;5092664;28;20227;-60
2022/04/22 10:09:16;;;;;;;5.70;4.43;;;14.70;99.90;;;;;;5092954;28;20210;-59
2022/04/22 10:11:43;;;;;;;5.60;4.50;;;14.60;99.90;;;;;;5095984;28;20304;-59
2022/04/22 10:14:10;;;;;;;4.88;3.78;;;14.90;99.90;;;;;;5096708;28;20514;-59
2022/04/22 10:16:36;;;;;;;5.95;4.20;;;15.20;99.90;;;;;;5096517;28;20174;-59
2022/04/22 10:19:02;;;;;;;5.78;4.13;;;15.50;99.90;;;;;;5096385;28;20185;-59
2022/04/22 10:21:28;;;;;;;5.07;3.85;;;15.70;99.90;;;;;;5096555;28;20185;-59
2022/04/22 10:23:56;;;;;;;5.07;4.05;;;15.70;99.90;;;;;;5078299;28;20178;-59
2022/04/22 10:26:22;;;;;;;5.50;4.13;;;15.60;99.50;;;;;;5096262;28;20193;-60
2022/04/22 10:28:49;;;;;;;5.75;4.25;;;15.50;99.90;;;;;;5096240;28;20633;-60
2022/04/22 10:31:15;;;;;;;5.28;3.80;;;15.30;99.90;;;;;;5096208;28;20186;-60
2022/04/22 10:33:43;;;;;;;4.70;4.15;;;15.10;99.80;;;;;;5096400;28;20537;-60
2022/04/22 10:36:13;;;;;;;6.10;3.70;;;15.10;99.90;;;;;;5096354;28;20177;-60
2022/04/22 10:38:42;;;;;;;5.70;4.22;;;15.00;99.90;;;;;;5096356;28;20177;-60
2022/04/22 10:41:18;;;;;;;6.57;4.60;;;14.90;99.90;;;;;;5096182;28;20548;-60
2022/04/22 10:49:46;;;;;;;6.07;5.05;;;14.60;99.90;;;;;;5096221;28;20612;-59
2022/04/22 10:52:19;;;;;;;5.07;4.47;;;14.40;99.90;;;;;;5078340;28;20184;-59
2022/04/22 10:54:58;;;;;;;6.13;5.25;;;14.50;99.90;;;;;;5095778;28;20178;-59
2022/04/22 10:57:32;;;;;;;7.63;5.63;;;14.60;99.90;;;;;;5096007;28;20185;-60
2022/04/22 11:00:07;;;;;;;7.70;5.22;;;14.40;99.90;;;;;;5095968;28;20567;-60
2022/04/22 11:02:35;;;;;;;7.95;6.07;;;14.40;99.90;;;;;;5095726;28;20207;-60
2022/04/22 11:05:19;;;;;;;8.05;6.38;;;14.30;99.90;;;;;;5095815;28;20199;-60
2022/04/22 11:07:50;;;;;;;7.95;6.10;;;14.40;99.90;;;;;;5095638;28;20292;-59
2022/04/22 11:10:20;;;;;;;8.40;6.13;;;14.30;99.90;;;;;;5095736;28;20162;-60
2022/04/22 11:12:54;;;;;;;7.47;5.75;;;14.40;99.90;;;;;;5095586;28;20174;-59
2022/04/22 11:15:47;;;;;;;6.93;5.53;;;14.50;99.90;;;;;;5095417;28;20188;-59
2022/04/22 11:18:14;;;;;;;6.55;5.40;;;14.50;99.90;;;;;;5095232;28;20529;-60
2022/04/22 11:20:45;;;;;;;7.10;5.65;;;14.50;99.90;;;;;;5095430;28;20212;-60
2022/04/22 11:23:15;;;;;;;6.20;5.10;;;14.50;99.90;;;;;;5094419;28;20231;-60
2022/04/22 11:25:42;;;;;;;5.53;4.88;;;14.50;99.90;;;;;;5095064;28;20170;-59
2022/04/22 11:28:08;;;;;;;6.30;5.00;;;14.60;99.90;;;;;;5095306;28;20166;-60
2022/04/22 11:30:35;;;;;;;5.57;4.88;;;14.60;99.90;;;;;;5095346;28;20174;-61
2022/04/22 11:33:19;;;;;;;5.57;5.00;;;14.70;99.90;;;;;;5095022;28;20174;-59
2022/04/22 11:35:47;;;;;;;6.00;5.05;;;14.70;99.90;;;;;;5095077;28;20169;-59
2022/04/22 11:38:13;;;;;;;8.32;5.28;;;14.80;99.90;;;;;;5094838;28;20178;-59
2022/04/22 11:40:39;;;;;;;5.28;4.78;;;14.90;99.90;;;;;;5094858;28;20174;-60
2022/04/22 11:43:06;;;;;;;5.18;4.65;;;15.10;99.90;;;;;;5094877;28;20178;-59
2022/04/22 11:45:35;;;;;;;4.63;4.20;;;15.20;99.50;;;;;;5094848;28;20174;-60
2022/04/22 11:48:08;;;;;;;5.10;4.40;;;15.20;99.80;;;;;;5094866;28;20170;-59
2022/04/22 11:50:40;;;;;;;6.60;5.22;;;15.20;99.60;;;;;;5094754;28;20177;-60
2022/04/22 11:53:18;;;;;;;4.93;4.38;;;15.10;99.90;;;;;;5094806;28;20223;-59
2022/04/22 11:55:47;;;;;;;5.03;4.63;;;14.90;99.90;;;;;;5094555;28;20541;-60
2022/04/22 11:58:20;;;;;;;5.65;5.05;;;14.80;99.70;;;;;;5094661;28;20173;-60
2022/04/22 12:06:19;;;;;;;5.75;5.05;;;14.80;99.90;;;;;;5079792;28;20264;-59
2022/04/22 12:09:03;;;;;;;7.35;5.55;;;14.90;99.90;;;;;;5094473;28;20182;-60
2022/04/22 12:11:29;;;;;;;6.28;5.68;;;14.80;99.90;;;;;;5094573;28;20172;-59
2022/04/22 12:13:56;;;;;;;6.28;5.05;;;14.80;99.90;;;;;;5075977;28;20196;-59
2022/04/22 12:16:27;;;;;;;8.43;5.90;;;14.90;99.90;;;;;;5076619;28;20201;-59
2022/04/22 12:18:54;;;;;;;6.82;5.75;;;15.00;99.90;;;;;;5094363;28;20161;-60
2022/04/22 12:21:21;;;;;;;6.72;5.15;;;15.00;99.90;;;;;;5042946;28;20170;-59
2022/04/22 12:23:50;;;;;;;5.80;5.20;;;15.00;99.90;;;;;;5094092;28;20219;-59
2022/04/22 12:26:23;;;;;;;7.95;6.10;;;15.30;99.90;;;;;;5093949;28;20592;-60
2022/04/22 12:28:55;;;;;;;7.07;6.30;;;15.40;99.90;;;;;;5094180;28;20582;-61
2022/04/22 12:31:22;;;;;;;6.80;6.03;;;15.50;99.90;;;;;;5093957;28;20169;-60
2022/04/22 12:34:05;;;;;;;6.70;6.00;;;15.60;99.90;;;;;;5093724;28;20220;-60
2022/04/22 12:36:53;;;;;;;6.43;5.82;;;15.80;99.60;;;;;;5075868;28;20264;-60
2022/04/22 12:39:42;;;;;;;7.05;6.28;;;15.80;99.30;;;;;;5093949;28;20208;-60
2022/04/22 12:42:17;;;;;;;6.88;5.00;;;15.80;99.30;;;;;;5093685;28;20545;-60
2022/04/22 12:52:07;;;;;;;6.15;5.10;;;15.80;98.80;;;;;;5093806;28;20173;-60
2022/04/22 12:52:58;;;;;;;7.40;6.28;;;16.20;98.60;;;;;;5093980;28;20235;-60
2022/04/22 12:55:23;;;;;;;7.22;6.05;;;16.10;98.80;;;;;;5093526;28;20628;-59
2022/04/22 12:57:59;;;;;;;6.07;4.50;;;16.10;98.40;;;;;;5093697;28;20205;-60
2022/04/22 13:00:25;;;;;;;7.63;6.10;;;16.30;98.80;;;;;;5093687;28;20165;-61
2022/04/22 13:02:51;;;;;;;6.97;6.28;;;16.50;98.20;;;;;;5093584;28;20192;-60
2022/04/22 13:05:22;;;;;;;7.88;6.53;;;16.50;97.50;;;;;;5093349;28;20189;-60
2022/04/22 13:07:51;;;;;;;6.35;5.35;;;16.60;97.30;;;;;;5093325;28;20229;-60
2022/04/22 13:10:22;;;;;;;7.13;6.13;;;16.60;97.80;;;;;;5075606;28;20185;-60
2022/04/22 13:12:48;;;;;;;6.75;5.63;;;16.80;98.40;;;;;;5093674;28;20173;-61
2022/04/22 13:15:19;;;;;;;7.13;5.90;;;17.00;98.50;;;;;;5075511;28;20188;-60
2022/04/22 13:17:50;;;;;;;6.85;6.15;;;16.60;97.20;;;;;;5093291;28;20177;-60
2022/04/22 13:20:18;;;;;;;7.32;5.82;;;16.40;98.20;;;;;;5093209;28;20647;-61
2022/04/22 13:22:44;;;;;;;6.90;6.20;;;16.40;98.60;;;;;;5093446;28;20178;-60
2022/04/22 13:25:12;;;;;;;6.72;6.03;;;16.60;98.60;;;;;;5093474;28;20227;-61
2022/04/22 13:27:41;;;;;;;6.50;5.78;;;16.50;97.70;;;;;;5075393;28;20696;-60
2022/04/22 13:30:09;;;;;;;6.40;5.72;;;16.50;97.50;;;;;;5093148;28;20201;-60
2022/04/22 13:32:35;;;;;;;6.82;5.68;;;16.40;97.40;;;;;;5093168;28;20189;-60
2022/04/22 13:35:01;;;;;;;6.30;5.30;;;16.50;97.40;;;;;;5093096;28;20308;-60
2022/04/22 13:37:26;;;;;;;6.05;5.40;;;16.70;97.10;;;;;;5093168;28;20264;-61
2022/04/22 13:39:52;;;;;;;6.40;5.40;;;16.70;97.20;;;;;;5093015;28;20648;-60
2022/04/22 13:42:20;;;;;;;5.88;5.15;;;16.90;97.30;;;;;;5075178;28;20170;-60
2022/04/22 13:52:59;;;;;;;5.32;4.82;;;16.90;97.00;;;;;;5097034;28;20185;-65
2022/04/22 13:55:25;;;;;;;7.22;5.65;;;17.10;98.00;;;;;;5096983;28;20174;-60
2022/04/22 13:57:51;;;;;;;6.80;5.63;;;17.00;97.40;;;;;;5096757;28;20545;-60
2022/04/22 14:00:17;;;;;;;7.07;5.60;;;17.20;97.50;;;;;;5097107;28;20209;-60
2022/04/22 14:02:43;;;;;;;6.13;5.53;;;17.00;96.50;;;;;;5062250;28;20174;-60
2022/04/22 14:05:09;;;;;;;6.80;5.68;;;17.00;96.90;;;;;;5096918;28;20238;-60
2022/04/22 14:07:35;;;;;;;7.88;5.55;;;16.80;96.70;;;;;;5096756;28;20214;-60